Time;durP1;ratioP1;P1;durP2;ratioP2;P2;SDS_P1;SDS_P2;PMS_P1;PMS_P2;Temp;Humidity;BMP_temperature;BMP_pressure;BME280_temperature;BME280_humidity;BME280_pressure;Samples;Min_cycle;Max_cycle;Signal;HPM_P1;HPM_P2
2024/01/15 00:00:42;;;;;;;44.55;27.58;;;1.10;99.90;;;;;;5040063;28;20025;-72
2024/01/15 00:03:09;;;;;;;39.13;26.88;;;1.00;99.90;;;;;;5041444;28;20028;-70
2024/01/15 00:05:35;;;;;;;26.75;23.02;;;1.00;99.90;;;;;;5025541;28;20041;-70
2024/01/15 00:08:01;;;;;;;41.08;26.17;;;1.00;99.90;;;;;;5043072;28;20038;-70
2024/01/15 00:10:26;;;;;;;39.70;26.10;;;1.00;99.90;;;;;;5023345;28;20471;-70
2024/01/15 00:12:52;;;;;;;34.13;25.23;;;1.30;99.90;;;;;;5041472;28;20033;-70
2024/01/15 00:15:18;;;;;;;34.58;26.63;;;1.00;99.90;;;;;;5043217;28;20024;-70
2024/01/15 00:17:44;;;;;;;36.83;25.75;;;0.80;99.90;;;;;;5041433;28;20024;-70
2024/01/15 00:20:10;;;;;;;31.48;25.50;;;0.80;99.90;;;;;;5025327;28;20048;-70
2024/01/15 00:22:36;;;;;;;40.17;28.83;;;0.90;99.90;;;;;;5023812;28;20057;-71
2024/01/15 00:25:03;;;;;;;34.85;26.20;;;1.40;99.90;;;;;;5042726;28;20341;-71
2024/01/15 00:27:28;;;;;;;32.45;24.08;;;0.90;99.90;;;;;;5024962;28;20264;-72
2024/01/15 00:29:54;;;;;;;38.88;25.55;;;0.90;99.90;;;;;;5040679;28;20033;-71
2024/01/15 00:32:20;;;;;;;34.03;25.10;;;1.00;99.90;;;;;;5040118;28;20219;-71
2024/01/15 00:34:46;;;;;;;32.78;22.55;;;0.90;99.90;;;;;;5042321;28;20017;-71
2024/01/15 00:37:12;;;;;;;31.00;21.88;;;1.00;99.90;;;;;;5042473;28;20041;-70
2024/01/15 00:39:38;;;;;;;35.15;24.25;;;1.00;99.90;;;;;;5041338;28;20041;-71
2024/01/15 00:42:05;;;;;;;41.30;30.08;;;1.60;99.90;;;;;;5037570;28;20083;-71
2024/01/15 00:44:31;;;;;;;45.75;25.88;;;0.90;99.90;;;;;;5008656;28;20091;-72
2024/01/15 00:46:56;;;;;;;37.88;27.95;;;0.90;99.90;;;;;;5024803;28;20374;-71
2024/01/15 00:49:22;;;;;;;37.33;24.73;;;0.90;99.90;;;;;;5041135;28;20131;-71
2024/01/15 00:51:48;;;;;;;37.33;28.05;;;0.80;99.90;;;;;;5040179;28;20025;-71
2024/01/15 00:54:14;;;;;;;50.13;29.40;;;0.80;99.90;;;;;;5008735;28;20025;-71
2024/01/15 00:56:39;;;;;;;42.28;27.55;;;0.80;99.90;;;;;;5042342;28;20037;-71
2024/01/15 00:59:05;;;;;;;30.20;25.58;;;0.80;99.90;;;;;;5042541;28;20052;-71
2024/01/15 01:01:31;;;;;;;34.83;27.52;;;0.80;99.90;;;;;;5006858;28;20048;-71
2024/01/15 01:03:57;;;;;;;40.40;27.73;;;0.80;99.90;;;;;;5041921;28;20017;-72
2024/01/15 01:06:23;;;;;;;35.28;27.38;;;0.80;99.90;;;;;;5040488;28;20329;-72
2024/01/15 01:08:49;;;;;;;31.73;23.23;;;0.80;99.90;;;;;;5042023;28;20180;-72
2024/01/15 01:11:15;;;;;;;28.92;25.23;;;0.80;99.90;;;;;;5036988;28;20036;-71
2024/01/15 01:13:42;;;;;;;32.13;28.63;;;0.80;99.90;;;;;;5042047;28;20067;-71
2024/01/15 01:16:08;;;;;;;32.13;27.85;;;0.80;99.90;;;;;;5042336;28;20034;-71
2024/01/15 01:18:34;;;;;;;39.85;30.77;;;0.80;99.90;;;;;;5042236;28;20028;-71
2024/01/15 01:21:00;;;;;;;39.20;29.45;;;0.80;99.90;;;;;;5041461;28;20034;-72
2024/01/15 01:23:27;;;;;;;38.55;29.98;;;0.70;99.90;;;;;;5042056;28;20099;-71
2024/01/15 01:25:52;;;;;;;43.15;30.77;;;0.70;99.90;;;;;;5040643;28;20037;-71
2024/01/15 01:28:18;;;;;;;33.72;29.38;;;0.70;99.90;;;;;;5024625;28;20113;-71
2024/01/15 01:30:44;;;;;;;31.45;26.65;;;0.80;99.90;;;;;;5040267;28;20303;-72
2024/01/15 01:33:10;;;;;;;34.00;30.02;;;1.50;99.90;;;;;;5040953;28;20025;-72
2024/01/15 01:35:36;;;;;;;32.90;26.20;;;0.80;99.90;;;;;;5021338;28;20070;-71
2024/01/15 01:38:02;;;;;;;31.67;23.70;;;0.80;99.90;;;;;;5034836;28;20234;-71
2024/01/15 01:40:28;;;;;;;33.38;25.88;;;0.80;99.90;;;;;;5022882;28;20048;-71
2024/01/15 01:42:53;;;;;;;28.73;22.85;;;1.50;99.90;;;;;;5043496;28;20047;-71
2024/01/15 01:45:19;;;;;;;25.50;22.75;;;0.80;99.90;;;;;;5027945;28;20214;-71
2024/01/15 01:47:45;;;;;;;29.80;22.38;;;0.90;99.90;;;;;;5027825;28;20352;-71
2024/01/15 01:50:12;;;;;;;28.10;23.95;;;0.90;99.90;;;;;;5027536;28;20029;-71
2024/01/15 01:52:41;;;;;;;33.17;24.77;;;0.90;99.90;;;;;;5025224;28;20041;-72
2024/01/15 01:55:08;;;;;;;32.53;23.73;;;0.90;99.90;;;;;;4991977;28;20073;-71
2024/01/15 01:57:35;;;;;;;34.30;26.23;;;0.90;99.90;;;;;;4991825;28;20311;-71
2024/01/15 02:00:03;;;;;;;33.70;24.63;;;0.90;99.90;;;;;;5025092;28;20034;-71
2024/01/15 02:02:38;;;;;;;34.45;24.83;;;1.00;99.90;;;;;;5028783;28;20037;-71
2024/01/15 02:05:05;;;;;;;29.02;25.00;;;1.00;99.90;;;;;;5028492;28;20052;-72
2024/01/15 02:07:34;;;;;;;30.65;24.55;;;1.00;99.90;;;;;;5025404;28;20022;-71
2024/01/15 02:10:00;;;;;;;29.17;24.88;;;1.00;99.90;;;;;;5017353;28;20363;-73
2024/01/15 02:12:26;;;;;;;24.50;21.83;;;1.00;99.90;;;;;;5041992;28;20083;-72
2024/01/15 02:14:52;;;;;;;30.83;20.35;;;1.00;99.90;;;;;;5044958;28;20036;-72
2024/01/15 02:17:17;;;;;;;27.17;19.20;;;1.00;99.90;;;;;;5027206;28;20310;-70
2024/01/15 02:19:43;;;;;;;22.77;19.42;;;2.10;99.90;;;;;;5026998;28;20032;-72
2024/01/15 02:22:09;;;;;;;20.92;18.70;;;2.20;99.90;;;;;;5026083;28;20024;-72
2024/01/15 02:24:35;;;;;;;26.33;17.13;;;1.20;99.90;;;;;;5043834;28;20092;-72
2024/01/15 02:27:01;;;;;;;20.13;17.27;;;1.10;99.90;;;;;;5043277;28;20041;-72
2024/01/15 02:29:27;;;;;;;25.38;18.25;;;1.00;99.90;;;;;;5044415;28;20198;-72
2024/01/15 02:31:53;;;;;;;21.88;17.20;;;0.90;99.90;;;;;;5025586;28;20237;-72
2024/01/15 02:34:19;;;;;;;19.25;15.02;;;0.90;99.90;;;;;;4993973;28;20075;-71
2024/01/15 02:36:44;;;;;;;22.02;17.63;;;0.90;99.90;;;;;;5027227;28;20234;-71
2024/01/15 02:39:10;;;;;;;17.13;15.50;;;0.90;99.90;;;;;;5026680;28;20048;-71
2024/01/15 02:41:36;;;;;;;22.08;16.65;;;0.90;99.90;;;;;;5041767;28;20026;-71
2024/01/15 02:44:02;;;;;;;20.10;18.02;;;0.90;99.90;;;;;;5026409;28;20025;-72
2024/01/15 02:46:28;;;;;;;23.80;15.82;;;0.90;99.90;;;;;;5010444;28;20044;-72
2024/01/15 02:48:54;;;;;;;22.42;20.25;;;0.90;99.90;;;;;;5026353;28;20021;-72
2024/01/15 02:51:20;;;;;;;26.98;21.00;;;1.00;99.90;;;;;;4992811;28;20029;-71
2024/01/15 02:53:45;;;;;;;28.48;20.77;;;1.00;99.90;;;;;;5042926;28;20021;-71
2024/01/15 02:56:11;;;;;;;25.33;20.15;;;1.10;99.90;;;;;;5044311;28;20040;-72
2024/01/15 02:58:37;;;;;;;25.20;20.85;;;1.00;99.90;;;;;;5026433;28;20184;-71
2024/01/15 03:01:03;;;;;;;22.40;20.02;;;1.00;99.90;;;;;;5025427;28;20377;-72
2024/01/15 03:03:29;;;;;;;24.83;19.90;;;0.90;99.90;;;;;;5043735;28;20026;-71
2024/01/15 03:05:54;;;;;;;23.30;20.90;;;1.40;99.90;;;;;;5043880;28;20318;-71
2024/01/15 03:08:22;;;;;;;31.45;20.48;;;0.90;99.90;;;;;;5026301;28;20128;-72
2024/01/15 03:10:48;;;;;;;44.58;20.30;;;0.80;99.90;;;;;;5036070;28;20025;-71
2024/01/15 03:13:14;;;;;;;21.77;18.58;;;0.90;99.90;;;;;;5026244;28;20048;-71
2024/01/15 03:15:40;;;;;;;22.80;18.73;;;1.30;99.90;;;;;;5042700;28;20048;-73
2024/01/15 03:18:06;;;;;;;26.38;17.55;;;0.80;99.90;;;;;;5042405;28;20298;-71
2024/01/15 03:20:32;;;;;;;25.42;18.77;;;0.90;99.90;;;;;;5041559;28;20096;-72
2024/01/15 03:22:58;;;;;;;32.95;19.80;;;0.80;99.90;;;;;;5043583;28;20044;-71
2024/01/15 03:25:24;;;;;;;21.27;19.17;;;0.90;99.90;;;;;;5026490;28;20049;-71
2024/01/15 03:27:50;;;;;;;20.58;18.63;;;0.80;99.90;;;;;;5025426;28;20021;-72
2024/01/15 03:30:16;;;;;;;25.85;18.50;;;1.80;99.90;;;;;;5008587;28;20079;-71
2024/01/15 03:32:41;;;;;;;22.98;18.60;;;0.80;99.90;;;;;;5043931;28;20021;-71
2024/01/15 03:35:07;;;;;;;21.65;16.67;;;1.30;99.90;;;;;;5025442;28;20362;-71
2024/01/15 03:37:33;;;;;;;20.50;16.05;;;0.70;99.90;;;;;;5022931;28;20026;-72
2024/01/15 03:39:59;;;;;;;19.65;17.65;;;1.50;99.90;;;;;;5023478;28;20071;-73
2024/01/15 03:42:25;;;;;;;20.75;17.23;;;0.70;99.90;;;;;;5022403;28;20069;-71
2024/01/15 03:44:51;;;;;;;23.80;18.23;;;0.70;99.90;;;;;;5009604;28;20029;-71
2024/01/15 03:47:16;;;;;;;27.25;16.35;;;0.80;99.90;;;;;;5025827;28;20037;-71
2024/01/15 03:49:42;;;;;;;17.30;15.45;;;1.00;99.90;;;;;;5025070;28;20305;-72
2024/01/15 03:52:08;;;;;;;16.42;14.20;;;0.70;99.90;;;;;;5008624;28;20078;-71
2024/01/15 03:54:34;;;;;;;18.30;13.25;;;1.00;99.90;;;;;;5043148;28;20048;-72
2024/01/15 03:57:00;;;;;;;19.73;11.65;;;0.70;99.90;;;;;;5041651;28;20037;-72
2024/01/15 03:59:26;;;;;;;16.75;12.05;;;0.90;99.90;;;;;;5043266;28;20026;-71
2024/01/15 04:01:52;;;;;;;12.10;11.05;;;0.80;99.90;;;;;;5024621;28;20048;-71
2024/01/15 04:04:18;;;;;;;12.63;11.35;;;1.50;99.90;;;;;;5036508;28;20205;-71
2024/01/15 04:06:44;;;;;;;15.15;13.70;;;0.70;99.90;;;;;;5025015;28;20222;-71
2024/01/15 04:09:11;;;;;;;14.75;12.25;;;0.90;99.90;;;;;;4976305;28;20025;-72
2024/01/15 04:11:37;;;;;;;13.13;11.73;;;;;;;;;;5025222;28;20210;-71
2024/01/15 04:14:03;;;;;;;15.38;11.38;;;0.80;99.90;;;;;;5042456;28;20038;-71
2024/01/15 04:16:29;;;;;;;14.95;13.48;;;0.80;99.90;;;;;;5025387;28;20041;-71
2024/01/15 04:18:55;;;;;;;16.17;14.20;;;0.80;99.90;;;;;;5025313;28;20029;-72
2024/01/15 04:21:21;;;;;;;16.67;14.70;;;0.80;99.90;;;;;;5041553;28;20018;-72
2024/01/15 04:23:46;;;;;;;14.57;13.18;;;0.80;99.90;;;;;;5025004;28;20329;-71
2024/01/15 04:26:12;;;;;;;17.70;14.88;;;1.90;99.90;;;;;;5041161;28;20226;-72
2024/01/15 04:28:38;;;;;;;15.60;14.18;;;0.90;99.90;;;;;;5041767;28;20022;-71
2024/01/15 04:31:04;;;;;;;18.33;16.30;;;0.90;99.90;;;;;;5042162;28;20029;-72
2024/01/15 04:33:30;;;;;;;18.85;16.63;;;0.90;99.90;;;;;;5013619;28;20018;-72
2024/01/15 04:35:56;;;;;;;20.05;16.02;;;0.90;99.90;;;;;;5008006;28;20215;-71
2024/01/15 04:38:21;;;;;;;20.20;14.65;;;0.90;99.90;;;;;;5008701;28;20034;-71
2024/01/15 04:40:47;;;;;;;14.35;13.05;;;1.00;99.90;;;;;;5034412;28;20025;-72
2024/01/15 04:43:13;;;;;;;21.50;16.83;;;0.90;99.90;;;;;;5024790;28;20355;-72
2024/01/15 04:45:39;;;;;;;23.60;15.00;;;0.90;99.90;;;;;;5042856;28;20132;-71
2024/01/15 04:48:05;;;;;;;16.60;14.88;;;0.80;99.90;;;;;;5042587;28;20042;-71
2024/01/15 04:50:31;;;;;;;18.15;14.23;;;0.80;99.90;;;;;;5041202;28;20071;-72
2024/01/15 04:52:57;;;;;;;16.35;14.77;;;0.80;99.90;;;;;;5042453;28;20311;-71
2024/01/15 04:55:22;;;;;;;18.48;15.00;;;0.80;99.90;;;;;;5041433;28;20139;-72
2024/01/15 04:57:48;;;;;;;16.95;14.30;;;0.90;99.90;;;;;;5040801;28;20068;-71
2024/01/15 05:00:14;;;;;;;19.85;16.80;;;0.90;99.90;;;;;;5041042;28;20033;-71
2024/01/15 05:02:40;;;;;;;18.88;16.45;;;0.90;99.90;;;;;;5023053;28;20298;-71
2024/01/15 05:05:06;;;;;;;34.72;17.60;;;0.90;99.90;;;;;;4998406;28;20092;-71
2024/01/15 05:07:32;;;;;;;20.65;17.23;;;0.90;99.90;;;;;;5042124;28;20041;-72
2024/01/15 05:09:57;;;;;;;25.10;19.13;;;0.80;99.90;;;;;;5042431;28;20337;-72
2024/01/15 05:12:23;;;;;;;22.40;19.95;;;0.90;99.90;;;;;;5022142;28;20033;-72
2024/01/15 05:14:49;;;;;;;20.95;15.57;;;0.90;99.90;;;;;;5005145;28;20022;-71
2024/01/15 05:17:15;;;;;;;25.80;17.90;;;0.80;99.90;;;;;;5022718;28;20068;-71
2024/01/15 05:19:41;;;;;;;18.15;16.55;;;0.80;99.90;;;;;;5026071;28;20311;-72
2024/01/15 05:22:07;;;;;;;23.80;17.15;;;0.80;99.90;;;;;;5040444;28;20029;-71
2024/01/15 05:24:33;;;;;;;19.50;17.50;;;0.80;99.90;;;;;;5028003;28;20025;-71
2024/01/15 05:26:59;;;;;;;18.77;16.95;;;0.40;99.90;;;;;;5045768;28;20363;-71
2024/01/15 05:29:25;;;;;;;26.95;19.48;;;0.80;99.90;;;;;;5046153;28;20067;-71
2024/01/15 05:31:50;;;;;;;21.90;19.88;;;0.90;99.90;;;;;;5027675;28;20045;-72
2024/01/15 05:34:16;;;;;;;21.20;18.90;;;0.80;99.90;;;;;;5022595;28;20028;-73
2024/01/15 05:36:42;;;;;;;27.17;18.83;;;0.80;99.90;;;;;;5042626;28;20025;-73
2024/01/15 05:39:08;;;;;;;20.95;18.83;;;0.80;99.90;;;;;;5027777;28;20287;-71
2024/01/15 05:41:34;;;;;;;18.75;16.88;;;0.80;99.90;;;;;;5044273;28;20041;-72
2024/01/15 05:43:59;;;;;;;27.85;17.58;;;0.80;99.90;;;;;;5028052;28;20049;-72
2024/01/15 05:46:25;;;;;;;19.60;15.50;;;0.80;99.90;;;;;;5023674;28;20060;-72
2024/01/15 05:48:51;;;;;;;18.63;16.65;;;0.90;99.90;;;;;;5024680;28;20253;-71
2024/01/15 05:51:17;;;;;;;19.63;15.00;;;1.90;99.90;;;;;;5023653;28;20544;-72
2024/01/15 05:53:44;;;;;;;18.90;17.00;;;0.90;99.90;;;;;;5043567;28;20096;-72
2024/01/15 05:56:11;;;;;;;17.73;15.40;;;0.90;99.90;;;;;;5044725;28;20045;-73
2024/01/15 05:58:37;;;;;;;24.88;17.83;;;1.80;99.90;;;;;;5044848;28;20049;-71
2024/01/15 06:01:03;;;;;;;17.25;15.70;;;1.00;99.90;;;;;;5042608;28;20064;-72
2024/01/15 06:03:29;;;;;;;26.40;14.60;;;1.00;99.90;;;;;;5043422;28;20033;-72
2024/01/15 06:05:55;;;;;;;15.10;12.90;;;1.00;99.90;;;;;;5010597;28;20101;-72
2024/01/15 06:08:21;;;;;;;18.55;13.18;;;0.90;99.90;;;;;;5043774;28;20029;-73
2024/01/15 06:10:46;;;;;;;20.77;14.15;;;1.20;99.90;;;;;;5041476;28;20022;-72
2024/01/15 06:13:13;;;;;;;14.00;12.10;;;0.90;99.90;;;;;;5044282;28;20033;-75
2024/01/15 06:15:39;;;;;;;15.25;13.82;;;1.00;99.90;;;;;;5044255;28;20088;-76
2024/01/15 06:18:05;;;;;;;13.85;12.07;;;0.90;99.90;;;;;;5042903;28;20029;-76
2024/01/15 06:20:31;;;;;;;18.30;12.48;;;0.90;99.90;;;;;;5041298;28;20306;-72
2024/01/15 06:22:57;;;;;;;13.55;12.43;;;1.00;99.90;;;;;;5025375;28;20025;-72
2024/01/15 06:25:23;;;;;;;17.30;11.65;;;1.00;99.90;;;;;;5044250;28;20049;-72
2024/01/15 06:27:48;;;;;;;15.35;12.93;;;1.30;99.90;;;;;;5025668;28;20021;-72
2024/01/15 06:30:14;;;;;;;14.88;13.15;;;1.00;99.90;;;;;;5040414;28;20026;-71
2024/01/15 06:32:41;;;;;;;18.15;14.82;;;1.20;99.90;;;;;;5038545;28;20017;-72
2024/01/15 06:35:07;;;;;;;16.67;15.05;;;1.00;99.90;;;;;;5026429;28;20068;-72
2024/01/15 06:37:33;;;;;;;17.42;15.43;;;1.00;99.90;;;;;;5043651;28;20025;-72
2024/01/15 06:39:58;;;;;;;16.42;14.98;;;1.00;99.90;;;;;;5042904;28;20029;-72
2024/01/15 06:42:25;;;;;;;20.25;18.30;;;0.90;99.90;;;;;;5023570;28;20022;-72
2024/01/15 06:44:51;;;;;;;15.98;14.50;;;0.80;99.90;;;;;;5042173;28;20051;-72
2024/01/15 06:47:17;;;;;;;17.15;15.45;;;0.80;99.90;;;;;;5025916;28;20056;-73
2024/01/15 06:49:43;;;;;;;16.63;15.02;;;0.70;99.90;;;;;;5042672;28;20029;-71
2024/01/15 06:52:09;;;;;;;17.02;15.05;;;1.90;99.90;;;;;;5035522;28;20036;-72
2024/01/15 06:54:35;;;;;;;16.00;14.50;;;0.70;99.90;;;;;;5026114;28;20365;-72
2024/01/15 06:57:00;;;;;;;14.98;13.25;;;0.70;99.90;;;;;;5025656;28;20255;-72
2024/01/15 06:59:26;;;;;;;16.15;14.57;;;0.70;99.90;;;;;;5042395;28;20025;-73
2024/01/15 07:01:52;;;;;;;15.98;14.43;;;0.80;99.90;;;;;;5042096;28;20383;-72
2024/01/15 07:04:18;;;;;;;17.58;14.85;;;0.60;99.90;;;;;;5040894;28;20036;-72
2024/01/15 07:06:44;;;;;;;14.20;12.60;;;1.00;99.90;;;;;;5017107;28;20076;-74
2024/01/15 07:09:10;;;;;;;14.07;12.70;;;0.50;99.90;;;;;;5041980;28;20045;-74
2024/01/15 07:11:37;;;;;;;13.85;11.65;;;0.60;99.90;;;;;;5039483;28;20048;-73
2024/01/15 07:14:03;;;;;;;20.30;11.80;;;0.50;99.90;;;;;;5025267;28;20057;-74
2024/01/15 07:16:29;;;;;;;15.00;13.45;;;0.60;99.90;;;;;;5026030;28;20031;-74
2024/01/15 07:18:55;;;;;;;15.07;13.27;;;0.60;99.90;;;;;;5042493;28;20053;-73
2024/01/15 07:21:21;;;;;;;20.70;15.18;;;1.40;99.90;;;;;;5041986;28;20025;-74
2024/01/15 07:23:47;;;;;;;15.77;13.27;;;0.60;99.90;;;;;;5024602;28;20349;-74
2024/01/15 07:26:13;;;;;;;37.17;28.77;;;0.60;99.90;;;;;;5042604;28;20048;-73
2024/01/15 07:28:40;;;;;;;20.63;18.73;;;0.60;99.90;;;;;;5025563;28;20306;-73
2024/01/15 07:31:06;;;;;;;21.92;19.77;;;0.60;99.90;;;;;;5004213;28;20026;-73
2024/01/15 07:33:32;;;;;;;34.13;27.40;;;0.60;99.90;;;;;;5041480;28;20555;-73
2024/01/15 07:35:58;;;;;;;20.88;18.75;;;1.50;99.90;;;;;;4997819;28;20055;-74
2024/01/15 07:38:23;;;;;;;31.23;24.60;;;0.70;99.90;;;;;;5041923;28;20032;-73
2024/01/15 07:40:49;;;;;;;23.92;21.50;;;1.40;99.90;;;;;;5039939;28;20090;-73
2024/01/15 07:43:15;;;;;;;26.00;22.55;;;0.60;99.90;;;;;;5041686;28;20028;-75
2024/01/15 07:45:41;;;;;;;41.70;37.78;;;0.60;99.90;;;;;;5041097;28;20045;-73
2024/01/15 07:48:07;;;;;;;19.58;17.63;;;0.70;99.90;;;;;;5024638;28;20145;-71
2024/01/15 07:50:32;;;;;;;16.90;14.90;;;0.60;99.90;;;;;;5038702;28;20072;-73
2024/01/15 07:52:59;;;;;;;23.52;20.75;;;0.50;99.90;;;;;;5023740;28;20025;-73
2024/01/15 07:55:25;;;;;;;24.48;22.13;;;0.50;99.90;;;;;;5027307;28;20018;-74
2024/01/15 07:57:52;;;;;;;11.02;9.95;;;0.50;99.90;;;;;;5008541;28;20048;-77
2024/01/15 08:00:18;;;;;;;13.50;10.07;;;0.60;99.90;;;;;;5021312;28;20302;-75
2024/01/15 08:02:43;;;;;;;10.25;9.38;;;0.60;99.90;;;;;;5018064;28;20031;-74
2024/01/15 08:05:09;;;;;;;9.90;9.00;;;0.70;99.90;;;;;;5041550;28;20336;-72
2024/01/15 08:07:35;;;;;;;9.90;9.02;;;0.60;99.90;;;;;;5024851;28;20037;-72
2024/01/15 08:10:01;;;;;;;9.30;8.50;;;0.60;99.90;;;;;;5040626;28;20104;-73
2024/01/15 08:12:27;;;;;;;8.35;7.53;;;0.60;99.90;;;;;;5024943;28;20044;-75
2024/01/15 08:14:52;;;;;;;11.75;10.57;;;1.30;99.90;;;;;;5028415;28;20281;-73
2024/01/15 08:17:18;;;;;;;13.30;12.13;;;0.60;99.90;;;;;;5026394;28;20042;-75
2024/01/15 08:19:44;;;;;;;10.65;7.72;;;0.70;99.90;;;;;;5037664;28;20021;-74
2024/01/15 08:22:10;;;;;;;23.92;15.23;;;0.70;99.90;;;;;;5029467;28;20022;-75
2024/01/15 08:24:36;;;;;;;32.22;24.45;;;0.80;99.90;;;;;;5034404;28;20025;-74
2024/01/15 08:27:01;;;;;;;9.68;8.85;;;1.00;99.90;;;;;;5041824;28;20076;-73
2024/01/15 08:29:27;;;;;;;11.32;6.63;;;0.60;99.90;;;;;;5041112;28;20230;-72
2024/01/15 08:31:54;;;;;;;7.90;7.20;;;0.60;99.90;;;;;;5040476;28;20083;-73
2024/01/15 08:34:20;;;;;;;11.02;8.02;;;0.60;99.90;;;;;;5042269;28;20318;-75
2024/01/15 08:36:45;;;;;;;8.52;7.55;;;0.50;99.90;;;;;;5024466;28;20022;-74
2024/01/15 08:39:22;;;;;;;9.05;7.30;;;0.50;99.90;;;;;;5016679;28;20022;-74
2024/01/15 08:41:56;;;;;;;7.45;6.85;;;0.50;99.90;;;;;;5015233;28;20353;-73
2024/01/15 08:44:22;;;;;;;8.65;7.85;;;0.50;99.90;;;;;;5018443;28;20021;-73
2024/01/15 08:46:48;;;;;;;10.45;8.88;;;;;;;;;;5008759;28;20040;-73
2024/01/15 08:49:14;;;;;;;7.63;7.03;;;0.60;99.90;;;;;;5024226;28;20025;-74
2024/01/15 08:51:40;;;;;;;10.80;7.68;;;0.80;99.90;;;;;;5038532;28;20232;-72
2024/01/15 08:54:08;;;;;;;8.07;7.28;;;0.60;99.90;;;;;;5045557;28;20266;-72
2024/01/15 08:56:34;;;;;;;6.88;6.38;;;0.60;99.90;;;;;;5045960;28;20049;-72
2024/01/15 08:59:00;;;;;;;11.30;7.68;;;0.60;99.90;;;;;;5028435;28;20522;-72
2024/01/15 09:01:25;;;;;;;7.80;7.15;;;1.10;99.90;;;;;;5016781;28;20025;-73
2024/01/15 09:03:51;;;;;;;8.60;7.80;;;0.60;99.90;;;;;;5011421;28;20025;-74
2024/01/15 09:06:17;;;;;;;9.02;6.88;;;0.60;99.90;;;;;;5025826;28;20049;-76
2024/01/15 09:08:43;;;;;;;6.28;5.72;;;0.60;99.90;;;;;;5023916;28;20026;-77
2024/01/15 09:11:09;;;;;;;14.57;5.45;;;0.60;99.90;;;;;;5044643;28;20028;-75
2024/01/15 09:13:34;;;;;;;5.93;5.40;;;0.60;99.90;;;;;;5027798;28;20029;-77
2024/01/15 09:16:00;;;;;;;5.90;3.65;;;0.60;99.90;;;;;;5027812;28;20047;-72
2024/01/15 09:18:26;;;;;;;4.80;4.30;;;0.60;99.90;;;;;;5044417;28;20034;-74
2024/01/15 09:20:52;;;;;;;5.72;4.18;;;1.70;99.90;;;;;;5042604;28;20020;-72
2024/01/15 09:23:18;;;;;;;9.27;6.15;;;0.60;99.90;;;;;;5045114;28;20349;-73
2024/01/15 09:25:44;;;;;;;5.85;5.43;;;0.90;99.90;;;;;;5011908;28;20041;-72
2024/01/15 09:28:10;;;;;;;5.50;4.63;;;0.70;99.90;;;;;;5044946;28;20361;-75
2024/01/15 09:30:36;;;;;;;7.93;7.13;;;0.60;99.90;;;;;;5021365;28;20183;-73
2024/01/15 09:33:02;;;;;;;8.63;6.55;;;0.60;99.90;;;;;;5003627;28;20048;-72
2024/01/15 09:35:28;;;;;;;5.85;5.07;;;0.60;99.90;;;;;;5033771;28;20025;-74
2024/01/15 09:37:53;;;;;;;8.45;7.53;;;0.60;99.90;;;;;;5009556;28;20071;-72
2024/01/15 09:40:20;;;;;;;10.95;8.80;;;0.60;99.90;;;;;;5009609;28;20314;-73
2024/01/15 09:42:47;;;;;;;10.77;9.57;;;0.70;99.90;;;;;;5025329;28;20021;-73
2024/01/15 09:45:13;;;;;;;9.40;8.60;;;0.70;99.90;;;;;;5026889;28;20025;-74
2024/01/15 09:47:41;;;;;;;15.15;9.40;;;0.60;99.90;;;;;;5041541;28;20087;-75
2024/01/15 09:50:08;;;;;;;10.07;9.18;;;0.90;99.90;;;;;;5022827;28;20041;-73
2024/01/15 09:52:35;;;;;;;9.95;8.80;;;;;;;;;;5011073;28;20106;-73
2024/01/15 09:55:03;;;;;;;9.27;8.48;;;;;;;;;;5042486;28;20211;-75
2024/01/15 09:57:29;;;;;;;11.18;9.75;;;;;;;;;;5043552;28;20184;-74
2024/01/15 09:59:59;;;;;;;9.27;7.93;;;0.70;99.90;;;;;;5042684;28;20337;-73
2024/01/15 10:02:25;;;;;;;10.60;9.70;;;0.80;99.90;;;;;;5022964;28;20049;-75
2024/01/15 10:04:51;;;;;;;9.93;8.93;;;0.80;99.90;;;;;;5038091;28;20018;-74
2024/01/15 10:07:20;;;;;;;9.63;8.68;;;0.70;99.90;;;;;;5032784;28;20052;-73
2024/01/15 10:09:46;;;;;;;10.70;9.38;;;0.70;99.90;;;;;;5042987;28;20036;-73
2024/01/15 10:12:12;;;;;;;12.25;11.05;;;1.80;99.90;;;;;;5041791;28;20032;-74
2024/01/15 10:14:38;;;;;;;14.35;13.00;;;0.70;99.90;;;;;;5042485;28;20222;-74
2024/01/15 10:17:17;;;;;;;21.13;14.90;;;0.80;99.90;;;;;;5024971;28;20026;-73
2024/01/15 10:19:43;;;;;;;11.45;10.43;;;;;;;;;;5035057;28;20025;-73
2024/01/15 10:22:09;;;;;;;35.10;31.33;;;0.80;99.90;;;;;;5034654;28;20196;-74
2024/01/15 10:24:37;;;;;;;19.70;16.83;;;1.10;99.90;;;;;;5041707;28;20028;-79
2024/01/15 10:27:10;;;;;;;27.05;19.45;;;0.90;99.90;;;;;;5042285;28;20048;-76
2024/01/15 10:29:36;;;;;;;20.20;16.25;;;0.80;99.90;;;;;;5024511;28;20099;-75
2024/01/15 10:32:03;;;;;;;15.02;13.45;;;1.10;99.90;;;;;;5043296;28;20029;-74
2024/01/15 10:34:30;;;;;;;27.20;16.45;;;0.90;99.90;;;;;;5039227;28;20028;-76
2024/01/15 10:36:56;;;;;;;22.75;15.90;;;1.00;99.90;;;;;;5041595;28;20214;-75
2024/01/15 10:39:23;;;;;;;17.13;12.98;;;1.30;99.90;;;;;;5024367;28;20021;-76
2024/01/15 10:41:49;;;;;;;15.18;13.50;;;1.20;99.90;;;;;;5039316;28;20058;-75
2024/01/15 10:44:15;;;;;;;16.88;14.20;;;1.00;99.90;;;;;;5037085;28;20322;-76
2024/01/15 10:46:43;;;;;;;15.07;13.68;;;1.60;99.90;;;;;;5021527;28;20060;-75
2024/01/15 10:49:10;;;;;;;13.88;12.35;;;1.50;99.90;;;;;;5041068;28;20064;-75
2024/01/15 10:51:36;;;;;;;16.45;12.77;;;1.90;99.90;;;;;;5041060;28;20096;-74
2024/01/15 10:54:02;;;;;;;14.80;10.43;;;1.30;99.90;;;;;;5024252;28;20037;-75
2024/01/15 10:56:31;;;;;;;10.23;9.32;;;1.60;99.90;;;;;;5025522;28;20028;-73
2024/01/15 10:58:57;;;;;;;14.63;10.00;;;1.50;99.90;;;;;;5021512;28;20108;-73
2024/01/15 11:01:23;;;;;;;5.97;5.47;;;1.50;99.90;;;;;;5030178;28;20041;-74
2024/01/15 11:03:49;;;;;;;8.32;6.30;;;1.40;99.90;;;;;;5024124;28;20024;-73
2024/01/15 11:06:21;;;;;;;6.78;4.97;;;1.40;99.90;;;;;;5043907;28;20049;-73
2024/01/15 11:08:52;;;;;;;7.05;5.72;;;1.50;99.90;;;;;;5043139;28;20064;-74
2024/01/15 11:11:18;;;;;;;8.30;6.93;;;1.50;99.90;;;;;;5042719;28;20031;-72
2024/01/15 11:13:46;;;;;;;10.52;7.05;;;1.80;99.90;;;;;;5038017;28;20049;-72
2024/01/15 11:16:14;;;;;;;8.98;6.07;;;2.30;99.90;;;;;;5021205;28;20290;-72
2024/01/15 11:19:02;;;;;;;5.95;4.50;;;1.60;99.90;;;;;;5009382;28;20025;-73
2024/01/15 11:21:29;;;;;;;3.47;3.22;;;1.90;99.90;;;;;;5008861;28;20060;-72
2024/01/15 11:23:59;;;;;;;3.15;2.95;;;2.00;99.90;;;;;;5041471;28;20033;-72
2024/01/15 11:26:36;;;;;;;3.55;3.17;;;1.70;99.90;;;;;;5025465;28;20060;-71
2024/01/15 11:29:25;;;;;;;5.68;4.03;;;1.60;99.90;;;;;;5025539;28;20037;-71
2024/01/15 11:31:50;;;;;;;5.72;2.22;;;1.50;99.90;;;;;;5041532;28;20017;-72
2024/01/15 11:34:16;;;;;;;3.33;2.92;;;1.90;99.90;;;;;;5025813;28;20356;-72
2024/01/15 11:36:48;;;;;;;2.72;2.53;;;1.50;99.90;;;;;;5024600;28;20064;-73
2024/01/15 11:39:38;;;;;;;2.72;2.53;;;2.40;99.90;;;;;;5009184;28;20037;-71
2024/01/15 11:42:04;;;;;;;4.32;2.65;;;2.30;99.90;;;;;;5023564;28;20221;-73
2024/01/15 11:44:30;;;;;;;3.10;2.80;;;1.10;99.90;;;;;;5013834;28;20022;-72
2024/01/15 11:46:58;;;;;;;2.97;2.78;;;1.70;99.90;;;;;;5012474;28;20037;-71
2024/01/15 11:49:35;;;;;;;7.35;3.50;;;1.60;99.90;;;;;;5039657;28;20044;-72
2024/01/15 11:52:04;;;;;;;5.63;3.67;;;1.70;99.90;;;;;;5039622;28;20100;-71
2024/01/15 11:54:37;;;;;;;5.80;4.00;;;1.70;99.90;;;;;;5042509;28;20184;-71
2024/01/15 11:57:10;;;;;;;6.00;3.45;;;1.80;99.90;;;;;;5041029;28;20022;-71
2024/01/15 11:59:36;;;;;;;2.00;1.90;;;1.70;99.90;;;;;;5041537;28;20056;-72
2024/01/15 12:02:03;;;;;;;2.28;2.08;;;2.20;99.90;;;;;;5005503;28;20026;-72
2024/01/15 12:04:28;;;;;;;2.13;2.03;;;1.80;99.90;;;;;;5040893;28;20021;-71
2024/01/15 12:06:54;;;;;;;4.07;2.65;;;1.90;99.90;;;;;;5039744;28;20044;-71
2024/01/15 12:09:21;;;;;;;4.95;3.08;;;2.00;99.90;;;;;;5040835;28;20306;-74
2024/01/15 12:12:01;;;;;;;3.30;2.50;;;2.00;99.90;;;;;;5037876;28;20331;-72
2024/01/15 12:14:29;;;;;;;2.55;2.35;;;2.00;99.90;;;;;;5023100;28;20290;-73
2024/01/15 12:16:54;;;;;;;2.88;2.63;;;1.90;99.90;;;;;;5039820;28;20222;-72
2024/01/15 12:19:22;;;;;;;2.47;2.22;;;1.70;99.90;;;;;;5039674;28;20094;-73
2024/01/15 12:21:50;;;;;;;4.10;3.65;;;1.60;99.90;;;;;;5021377;28;20022;-72
2024/01/15 12:24:17;;;;;;;3.85;3.55;;;2.00;99.90;;;;;;5023023;28;20374;-71
2024/01/15 12:26:44;;;;;;;3.90;3.53;;;1.20;99.90;;;;;;5038798;28;20029;-72
2024/01/15 12:29:11;;;;;;;5.15;3.22;;;1.10;99.90;;;;;;5022990;28;20080;-72
2024/01/15 12:31:36;;;;;;;2.97;2.22;;;1.00;99.90;;;;;;5037930;28;20037;-73
2024/01/15 12:34:03;;;;;;;4.07;3.67;;;1.00;99.90;;;;;;5033342;28;20025;-73
2024/01/15 12:36:32;;;;;;;3.03;2.75;;;1.10;99.90;;;;;;5033887;28;20273;-73
2024/01/15 12:39:01;;;;;;;3.15;2.90;;;1.20;99.90;;;;;;5039479;28;20083;-72